Time;durP1;ratioP1;P1;durP2;ratioP2;P2;SDS_P1;SDS_P2;PMS_P1;PMS_P2;Temp;Humidity;BMP_temperature;BMP_pressure;BME280_temperature;BME280_humidity;BME280_pressure;Samples;Min_cycle;Max_cycle;Signal;HPM_P1;HPM_P2
2022/10/09 00:00:30;;;;;;;11.82;6.82;;;;;;;16.13;49.51;99995.53;5114437;27;20024;-37
2022/10/09 00:02:55;;;;;;;13.38;6.40;;;;;;;16.03;49.71;99994.25;5114557;28;20511;-37
2022/10/09 00:05:22;;;;;;;9.35;5.78;;;;;;;15.98;50.37;99993.31;5114450;28;20034;-40
2022/10/09 00:07:48;;;;;;;12.95;6.15;;;;;;;15.82;50.12;99992.94;5114310;28;20419;-37
2022/10/09 00:10:14;;;;;;;10.70;6.53;;;;;;;15.90;50.40;99996.34;5114267;28;20067;-37
2022/10/09 00:12:39;;;;;;;10.57;6.15;;;;;;;15.96;50.24;99993.53;5114283;28;20028;-37
2022/10/09 00:15:05;;;;;;;11.30;6.13;;;;;;;15.93;49.99;99983.25;5114220;28;20028;-37
2022/10/09 00:17:30;;;;;;;8.20;6.20;;;;;;;15.92;50.23;99987.00;5113959;28;20031;-37
2022/10/09 00:19:56;;;;;;;9.48;6.38;;;;;;;15.99;50.51;99981.50;5113704;28;20030;-37
2022/10/09 00:22:21;;;;;;;10.65;6.18;;;;;;;15.86;50.54;99981.72;5113694;28;20051;-37
2022/10/09 00:24:46;;;;;;;9.75;6.45;;;;;;;15.90;50.87;99983.72;5113932;28;20385;-37
2022/10/09 00:27:12;;;;;;;9.30;6.50;;;;;;;15.91;50.26;99976.50;5114259;28;20107;-37
2022/10/09 00:29:37;;;;;;;9.55;6.18;;;;;;;15.89;51.00;99979.41;5113477;28;20033;-36
2022/10/09 00:32:02;;;;;;;8.23;6.00;;;;;;;15.81;51.40;99983.25;5113593;28;20091;-37
2022/10/09 00:34:28;;;;;;;10.60;6.22;;;;;;;15.74;51.19;99982.53;5114199;28;20020;-37
2022/10/09 00:36:53;;;;;;;8.55;6.25;;;;;;;15.71;51.99;99982.19;5113676;28;20016;-36
2022/10/09 00:39:19;;;;;;;11.05;6.68;;;;;;;15.66;51.33;99979.34;5113177;28;20436;-37
2022/10/09 00:41:44;;;;;;;10.05;6.30;;;;;;;15.61;51.91;99986.25;5113135;28;20028;-37
2022/10/09 00:44:47;;;;;;;8.85;6.80;;;;;;;15.70;51.96;99984.03;5113736;28;20057;-37
2022/10/09 00:47:21;;;;;;;12.13;6.47;;;;;;;15.59;51.54;99982.97;5113524;28;20119;-37
2022/10/09 00:49:48;;;;;;;12.23;6.45;;;;;;;15.70;51.23;99980.53;5113756;28;20102;-37
2022/10/09 00:52:14;;;;;;;12.75;6.55;;;;;;;15.51;52.13;99977.13;5113143;28;20036;-37
2022/10/09 00:54:41;;;;;;;8.90;6.10;;;;;;;15.40;52.50;99979.53;5113424;28;20031;-37
2022/10/09 00:57:07;;;;;;;9.63;6.45;;;;;;;15.37;52.22;99982.69;5113335;27;20034;-37
2022/10/09 00:59:33;;;;;;;11.88;6.50;;;;;;;15.56;51.94;99977.25;5113251;28;20059;-37
2022/10/09 01:01:58;;;;;;;10.13;6.18;;;;;;;15.59;52.18;99985.66;5112435;28;20047;-37
2022/10/09 01:04:24;;;;;;;10.80;6.65;;;;;;;15.50;51.75;99972.78;5113313;27;20039;-37
2022/10/09 01:07:29;;;;;;;10.32;6.50;;;;;;;15.48;52.63;99983.75;5113456;28;20031;-37
2022/10/09 01:10:12;;;;;;;9.68;6.18;;;;;;;15.32;52.22;99969.13;5112988;28;20019;-37
2022/10/09 01:12:53;;;;;;;12.55;6.20;;;;;;;15.37;52.57;99976.50;5112020;28;20088;-37
2022/10/09 01:15:57;;;;;;;9.98;6.10;;;;;;;15.53;51.58;99977.69;5113068;28;20031;-37
2022/10/09 01:18:30;;;;;;;9.98;5.82;;;;;;;15.42;52.29;99984.66;5112047;28;20031;-38
2022/10/09 01:21:14;;;;;;;9.05;5.60;;;;;;;15.38;52.44;99978.97;5112591;28;20612;-37
2022/10/09 01:24:04;;;;;;;11.05;5.72;;;;;;;15.43;51.79;99978.25;5112246;28;20114;-37
2022/10/09 01:26:48;;;;;;;8.43;5.65;;;;;;;15.35;52.15;99975.91;5112606;28;20051;-37
2022/10/09 01:29:15;;;;;;;9.85;5.53;;;;;;;15.25;51.42;99979.16;5112996;28;20536;-37
2022/10/09 01:31:44;;;;;;;7.65;5.40;;;;;;;15.27;51.77;99974.38;5112389;28;20028;-37
2022/10/09 01:34:12;;;;;;;6.95;5.20;;;;;;;15.35;51.55;99973.25;5112549;28;20055;-36
2022/10/09 01:36:40;;;;;;;8.23;5.57;;;;;;;15.38;51.23;99975.44;5112815;28;20122;-37
2022/10/09 01:39:10;;;;;;;10.25;5.63;;;;;;;15.45;51.75;99981.53;5112408;28;20036;-37
2022/10/09 01:41:36;;;;;;;9.20;5.65;;;;;;;15.45;52.01;99978.84;5112527;28;20039;-37
2022/10/09 01:44:01;;;;;;;9.52;6.15;;;;;;;15.45;51.67;99981.53;5112431;28;20027;-37
2022/10/09 01:46:29;;;;;;;10.48;5.72;;;;;;;15.23;52.43;99974.03;5112365;28;20392;-37
2022/10/09 01:49:00;;;;;;;12.50;5.70;;;;;;;15.26;51.88;99978.09;5112528;27;20567;-37
2022/10/09 01:51:32;;;;;;;8.48;5.07;;;;;;;15.08;52.25;99980.81;5111295;28;20721;-36
2022/10/09 01:54:03;;;;;;;7.53;4.75;;;;;;;15.00;51.85;99988.16;5112167;28;20039;-37
2022/10/09 01:56:33;;;;;;;11.70;5.10;;;;;;;15.08;51.85;99987.03;5111890;28;20023;-37
2022/10/09 01:59:02;;;;;;;7.60;4.90;;;;;;;15.13;52.06;99989.81;5112169;28;20148;-38
2022/10/09 02:01:31;;;;;;;9.00;4.85;;;;;;;15.31;51.10;99986.28;5112252;28;20031;-37
2022/10/09 02:04:00;;;;;;;7.10;4.53;;;;;;;15.40;50.78;99994.78;5112388;28;20459;-37
2022/10/09 02:06:27;;;;;;;8.82;5.05;;;;;;;15.32;51.17;99989.78;5111923;27;20020;-37
2022/10/09 02:08:54;;;;;;;6.55;4.72;;;;;;;15.36;51.10;99999.00;5112519;28;20076;-36
2022/10/09 02:11:20;;;;;;;7.63;4.70;;;;;;;15.24;51.56;99996.28;5111799;28;20023;-37
2022/10/09 02:13:49;;;;;;;9.00;5.07;;;;;;;15.21;51.38;99996.72;5112181;28;20391;-38
2022/10/09 02:16:25;;;;;;;6.38;4.85;;;;;;;15.10;51.55;99989.44;5111836;28;20061;-38
2022/10/09 02:19:11;;;;;;;6.80;4.97;;;;;;;15.19;51.63;99994.28;5111975;28;20496;-38
2022/10/09 02:21:45;;;;;;;7.63;4.68;;;;;;;15.04;51.45;100000.06;5110806;28;20074;-37
2022/10/09 02:24:16;;;;;;;7.95;5.15;;;;;;;15.06;51.70;99994.47;5111723;28;20039;-38
2022/10/09 02:26:42;;;;;;;5.80;5.00;;;;;;;15.19;50.97;99998.81;5111715;28;20416;-37
2022/10/09 02:29:08;;;;;;;9.65;5.30;;;;;;;15.18;50.83;99998.00;5111721;28;20050;-38
2022/10/09 02:31:37;;;;;;;8.32;5.53;;;;;;;14.98;51.56;99998.28;5111343;28;20023;-38
2022/10/09 02:34:06;;;;;;;7.57;4.90;;;;;;;14.86;51.63;99995.53;5111453;28;20035;-38
2022/10/09 02:36:32;;;;;;;8.32;5.00;;;;;;;14.85;52.04;99999.25;5111620;27;20156;-37
2022/10/09 02:38:57;;;;;;;7.68;5.03;;;;;;;14.88;52.04;100005.22;5111153;28;20102;-38
2022/10/09 02:41:24;;;;;;;6.35;4.75;;;;;;;14.98;51.85;100010.84;5111221;28;20128;-38
2022/10/09 02:43:50;;;;;;;6.88;5.20;;;;;;;15.16;50.79;100010.00;5111768;28;20023;-38
2022/10/09 02:46:15;;;;;;;6.75;5.07;;;;;;;15.01;51.84;100000.50;5111599;28;20022;-38
2022/10/09 02:48:41;;;;;;;6.82;4.65;;;;;;;15.08;51.66;99994.22;5111181;28;20081;-38
2022/10/09 02:51:07;;;;;;;9.07;5.07;;;;;;;15.11;51.49;100007.19;5111167;28;20055;-37
2022/10/09 02:53:33;;;;;;;8.63;5.30;;;;;;;14.88;52.50;99999.84;5111330;27;20478;-37
2022/10/09 02:55:58;;;;;;;8.35;5.07;;;;;;;14.86;52.09;99986.69;5111309;28;20031;-37
2022/10/09 02:58:24;;;;;;;9.20;5.65;;;;;;;15.19;51.13;100009.53;5110474;28;20085;-38
2022/10/09 03:00:51;;;;;;;8.43;5.35;;;;;;;15.09;51.65;100010.06;5110816;28;20035;-38
2022/10/09 03:03:17;;;;;;;9.02;5.50;;;;;;;15.19;51.58;100007.69;5110982;28;20042;-38
2022/10/09 03:05:43;;;;;;;9.60;5.35;;;;;;;15.16;51.43;100021.53;5110872;28;20063;-38
2022/10/09 03:08:09;;;;;;;9.32;5.38;;;;;;;15.15;51.53;100016.41;5111409;28;20444;-38
2022/10/09 03:10:36;;;;;;;6.78;5.30;;;;;;;15.08;51.52;100013.81;5110448;28;20557;-37
2022/10/09 03:13:02;;;;;;;8.90;5.20;;;;;;;14.90;52.09;100016.53;5110999;28;20047;-37
2022/10/09 03:15:28;;;;;;;7.28;4.90;;;;;;;14.71;52.59;100019.19;5111093;28;20066;-37
2022/10/09 03:17:53;;;;;;;7.55;5.13;;;;;;;14.74;52.19;100013.41;5110764;28;20023;-37
2022/10/09 03:20:19;;;;;;;7.07;5.32;;;;;;;14.76;52.55;100015.88;5110535;28;20106;-37
2022/10/09 03:22:45;;;;;;;9.27;5.45;;;;;;;14.79;52.59;100018.91;5110540;28;20056;-37
2022/10/09 03:25:10;;;;;;;9.30;5.45;;;;;;;14.77;52.74;100018.28;5110595;28;20023;-37
2022/10/09 03:27:36;;;;;;;8.85;5.55;;;;;;;14.80;52.91;100027.78;5110834;28;20075;-37
2022/10/09 03:30:02;;;;;;;10.43;5.50;;;;;;;14.93;52.48;100018.75;5110931;28;20016;-37
2022/10/09 03:32:27;;;;;;;10.63;5.32;;;;;;;14.70;52.87;100016.75;5109878;28;20057;-37
2022/10/09 03:34:53;;;;;;;7.88;5.07;;;;;;;14.71;52.70;100024.56;5110821;28;20228;-37
2022/10/09 03:37:18;;;;;;;11.95;5.55;;;;;;;14.76;52.72;100029.25;5110654;28;20024;-37
2022/10/09 03:39:43;;;;;;;10.85;6.40;;;;;;;14.83;52.70;100032.66;5111032;28;20111;-36
2022/10/09 03:42:09;;;;;;;12.05;5.97;;;;;;;14.64;53.32;100027.31;5110300;28;20036;-37
2022/10/09 03:44:34;;;;;;;8.85;5.60;;;;;;;14.52;53.28;100010.31;5110921;28;20477;-37
2022/10/09 03:47:00;;;;;;;11.07;5.38;;;;;;;14.62;53.37;100031.25;5110981;28;20023;-37
2022/10/09 03:49:25;;;;;;;8.65;5.18;;;;;;;14.61;52.96;100029.63;5111026;28;20024;-37
2022/10/09 03:51:50;;;;;;;8.82;5.40;;;;;;;14.56;53.01;100034.78;5110657;28;20114;-37
2022/10/09 03:54:16;;;;;;;9.73;5.40;;;;;;;14.55;53.18;100025.94;5110700;28;20091;-37
2022/10/09 03:56:41;;;;;;;8.60;5.45;;;;;;;14.55;53.26;100035.84;5110813;28;20107;-37
2022/10/09 03:59:08;;;;;;;8.93;5.57;;;;;;;14.59;53.26;100024.50;5110948;28;20027;-37
2022/10/09 04:01:34;;;;;;;7.85;5.38;;;;;;;14.44;53.77;100032.03;5110858;28;20021;-36
2022/10/09 04:04:00;;;;;;;10.60;5.90;;;;;;;14.46;53.55;100038.00;5110514;28;20032;-36
2022/10/09 04:06:25;;;;;;;9.45;5.72;;;;;;;14.53;53.30;100037.94;5110542;28;20024;-36
2022/10/09 04:08:51;;;;;;;10.93;5.05;;;;;;;14.55;53.18;100033.19;5110556;28;20012;-37
2022/10/09 04:11:16;;;;;;;10.45;5.72;;;;;;;14.43;53.26;100043.78;5110619;28;20023;-37
2022/10/09 04:13:41;;;;;;;10.95;5.53;;;;;;;14.44;53.26;100032.84;5110475;28;20368;-37
2022/10/09 04:16:11;;;;;;;10.18;5.80;;;;;;;14.43;53.99;100031.22;5113619;28;20071;-37
2022/10/09 04:18:41;;;;;;;8.02;6.05;;;;;;;14.48;53.79;100039.41;5114804;28;20508;-37
2022/10/09 04:21:06;;;;;;;8.43;5.20;;;;;;;14.39;53.84;100032.72;5114155;28;20138;-37
2022/10/09 04:23:32;;;;;;;6.95;5.70;;;;;;;14.20;54.45;100039.91;5114795;28;20098;-37
2022/10/09 04:25:58;;;;;;;8.07;5.30;;;;;;;14.20;54.59;100037.22;5114101;28;20058;-37
2022/10/09 04:28:29;;;;;;;7.82;5.40;;;;;;;14.39;53.99;100037.22;5114128;28;20027;-37
2022/10/09 04:30:58;;;;;;;6.82;5.07;;;;;;;14.28;54.35;100044.16;5113604;28;20019;-37
2022/10/09 04:33:24;;;;;;;11.90;4.60;;;;;;;14.45;54.28;100044.41;5113087;28;20027;-37
2022/10/09 04:35:51;;;;;;;7.63;5.00;;;;;;;14.43;54.24;100047.28;5112751;28;20475;-37
2022/10/09 04:38:18;;;;;;;8.45;5.30;;;;;;;14.47;53.68;100053.84;5113996;28;20452;-37
2022/10/09 04:40:44;;;;;;;6.75;5.45;;;;;;;14.18;54.75;100049.97;5113578;28;20468;-37
2022/10/09 04:43:09;;;;;;;10.25;5.55;;;;;;;14.39;54.30;100059.50;5113606;28;20106;-37
2022/10/09 04:45:39;;;;;;;9.18;5.20;;;;;;;14.38;54.45;100057.84;5113821;28;20106;-37
2022/10/09 04:48:04;;;;;;;7.95;5.40;;;;;;;14.51;54.01;100051.53;5114138;28;20089;-37
2022/10/09 04:50:29;;;;;;;10.20;5.00;;;;;;;14.50;54.17;100054.44;5113548;28;20043;-37
2022/10/09 04:52:55;;;;;;;8.88;5.22;;;;;;;14.64;53.64;100055.94;5113956;28;20031;-37
2022/10/09 04:55:20;;;;;;;7.60;5.07;;;;;;;14.65;53.92;100061.09;5113581;28;20164;-37
2022/10/09 04:57:46;;;;;;;6.57;4.75;;;;;;;14.83;53.40;100054.94;5113619;28;20355;-35
2022/10/09 05:00:12;;;;;;;7.50;4.95;;;;;;;15.04;52.80;100056.34;5112967;28;20509;-37
2022/10/09 05:02:37;;;;;;;9.02;5.05;;;;;;;15.22;52.28;100058.16;5113672;28;20447;-36
2022/10/09 05:05:03;;;;;;;17.50;12.18;;;;;;;15.17;54.64;100060.72;5113641;28;20110;-37
2022/10/09 05:07:28;;;;;;;34.75;24.40;;;;;;;15.44;55.50;100065.72;5113294;28;20023;-37
2022/10/09 05:09:54;;;;;;;22.48;15.07;;;;;;;15.63;55.68;100069.13;5113626;28;20051;-37
2022/10/09 05:12:19;;;;;;;9.38;6.43;;;;;;;15.60;54.93;100066.94;5113497;28;20025;-38
2022/10/09 05:14:45;;;;;;;8.40;6.00;;;;;;;16.06;52.90;100072.66;5113623;28;20391;-37
2022/10/09 05:17:10;;;;;;;13.73;11.18;;;;;;;16.50;52.25;100073.16;5113468;28;20016;-37
2022/10/09 05:19:36;;;;;;;14.32;8.77;;;;;;;17.08;50.65;100069.59;5113337;28;20378;-37
2022/10/09 05:22:01;;;;;;;14.93;9.88;;;;;;;17.55;48.60;100073.94;5113057;28;20108;-36
2022/10/09 05:24:27;;;;;;;7.70;5.85;;;;;;;17.96;47.04;100074.69;5113552;28;20343;-37
2022/10/09 05:26:53;;;;;;;6.88;4.82;;;;;;;17.74;46.66;100071.88;5111975;28;20028;-37
2022/10/09 05:29:19;;;;;;;23.25;12.48;;;;;;;18.07;46.20;100065.72;5112483;27;20072;-34
2022/10/09 05:31:44;;;;;;;17.45;9.95;;;;;;;18.19;45.76;100075.59;5112349;28;20059;-35
2022/10/09 05:34:11;;;;;;;28.30;19.77;;;;;;;18.45;45.07;100079.47;5112562;27;20110;-37
2022/10/09 05:36:36;;;;;;;10.68;7.05;;;;;;;18.52;45.08;100082.81;5112657;28;20047;-36
2022/10/09 05:39:02;;;;;;;8.75;5.55;;;;;;;18.76;44.59;100083.44;5112160;28;20030;-38
2022/10/09 05:41:31;;;;;;;7.75;5.75;;;;;;;18.83;44.50;100085.97;5110459;28;20058;-34
2022/10/09 05:44:00;;;;;;;17.30;12.60;;;;;;;18.70;44.84;100089.81;5106562;28;20023;-35
2022/10/09 05:46:27;;;;;;;9.10;7.18;;;;;;;18.66;45.21;100089.50;5111835;28;20047;-36
2022/10/09 05:49:04;;;;;;;7.78;6.25;;;;;;;19.23;43.31;100091.06;5112321;28;20015;-36
2022/10/09 05:51:34;;;;;;;6.65;5.20;;;;;;;19.57;42.32;100092.75;5111786;28;20031;-35
2022/10/09 05:54:03;;;;;;;6.32;4.68;;;;;;;19.82;42.08;100090.34;5111795;28;20031;-36
2022/10/09 05:56:31;;;;;;;6.53;4.63;;;;;;;20.03;41.55;100090.50;5111337;28;20066;-36
2022/10/09 05:59:02;;;;;;;8.10;5.18;;;;;;;20.20;40.90;100101.19;5111527;28;20292;-37
2022/10/09 06:01:30;;;;;;;8.70;5.00;;;;;;;20.32;40.16;100096.41;5111564;28;20027;-35
2022/10/09 06:03:58;;;;;;;8.67;6.10;;;;;;;20.58;39.91;100104.69;5110251;28;20417;-35
2022/10/09 06:06:26;;;;;;;6.05;5.13;;;;;;;20.69;39.85;100099.13;5111568;28;20326;-35
2022/10/09 06:08:53;;;;;;;5.97;4.53;;;;;;;20.65;39.55;100103.41;5111708;28;20103;-40
2022/10/09 06:11:21;;;;;;;9.70;4.47;;;;;;;20.94;39.37;100108.44;5110974;28;20099;-47
2022/10/09 06:13:48;;;;;;;10.37;6.80;;;;;;;20.43;40.11;100105.44;5111663;28;20034;-41
2022/10/09 06:16:15;;;;;;;19.73;11.70;;;;;;;20.54;39.96;100106.28;5111286;28;20682;-42
2022/10/09 06:18:42;;;;;;;8.10;5.47;;;;;;;20.84;39.96;100113.78;5111095;28;20151;-41
2022/10/09 06:21:08;;;;;;;8.85;5.70;;;;;;;21.20;38.80;100113.97;5110244;28;20047;-40
2022/10/09 06:23:34;;;;;;;7.95;4.40;;;;;;;21.45;38.53;100111.34;5110119;28;20031;-40
2022/10/09 06:26:05;;;;;;;10.88;4.38;;;;;;;21.83;38.07;100117.38;5110881;28;20020;-41
2022/10/09 06:28:32;;;;;;;5.03;4.10;;;;;;;22.23;38.21;100114.97;5111108;28;20053;-41
2022/10/09 06:31:05;;;;;;;6.03;4.10;;;;;;;22.73;36.67;100118.75;5110704;28;20072;-41
2022/10/09 06:33:32;;;;;;;4.70;3.20;;;;;;;23.07;44.09;100123.53;5110807;28;20072;-40
2022/10/09 06:36:02;;;;;;;9.73;4.10;;;;;;;23.55;38.94;100125.75;5109528;28;20707;-36
2022/10/09 06:38:28;;;;;;;13.45;4.55;;;;;;;24.12;35.46;100126.19;5110707;28;20027;-35
2022/10/09 06:40:53;;;;;;;9.95;4.30;;;;;;;24.34;34.62;100123.03;5110598;28;20034;-36
2022/10/09 06:43:19;;;;;;;7.35;4.78;;;;;;;23.99;34.00;100125.75;5110748;28;20106;-37
2022/10/09 06:45:44;;;;;;;4.80;4.15;;;;;;;24.21;33.54;100127.22;5111280;28;20030;-35
2022/10/09 06:48:10;;;;;;;5.38;4.10;;;;;;;24.44;33.52;100125.63;5111246;28;20028;-35
2022/10/09 06:50:36;;;;;;;6.75;3.92;;;;;;;24.64;35.13;100130.13;5110754;28;20028;-36
2022/10/09 06:53:05;;;;;;;8.50;4.65;;;;;;;24.66;34.87;100129.84;5110942;28;20411;-36
2022/10/09 06:55:31;;;;;;;6.45;4.30;;;;;;;25.16;33.20;100127.63;5110731;28;20055;-36
2022/10/09 06:57:57;;;;;;;9.38;5.43;;;;;;;25.50;33.15;100132.91;5110462;28;20644;-36
2022/10/09 07:00:22;;;;;;;10.13;5.03;;;;;;;26.01;31.75;100138.72;5111018;28;20038;-36
2022/10/09 07:02:48;;;;;;;10.73;6.07;;;;;;;26.02;31.58;100138.44;5108493;28;20031;-36
2022/10/09 07:05:14;;;;;;;7.28;4.55;;;;;;;25.90;31.77;100140.78;5101115;28;20023;-36
2022/10/09 07:07:40;;;;;;;9.68;8.00;;;;;;;25.79;31.58;100133.88;5090842;28;20472;-35
2022/10/09 07:10:07;;;;;;;9.30;5.80;;;;;;;25.98;31.04;100133.88;5090144;28;20452;-36
2022/10/09 07:12:37;;;;;;;8.82;5.95;;;;;;;26.37;30.25;100135.41;5090389;28;20076;-36
2022/10/09 07:15:04;;;;;;;10.50;7.80;;;;;;;25.69;31.31;100140.28;5090543;28;20024;-36
2022/10/09 07:17:29;;;;;;;10.50;5.75;;;;;;;25.98;30.43;100139.34;5089198;28;20035;-36
2022/10/09 07:19:54;;;;;;;11.75;4.68;;;;;;;26.28;30.26;100135.31;5088607;28;20016;-36
2022/10/09 07:22:20;;;;;;;11.20;6.90;;;;;;;26.32;30.66;100139.06;5088713;28;20606;-36
2022/10/09 07:24:46;;;;;;;10.38;6.85;;;;;;;26.46;30.09;100133.63;5088633;28;20031;-36
2022/10/09 07:27:11;;;;;;;9.98;6.20;;;;;;;26.72;29.42;100139.44;5096886;28;20382;-35
2022/10/09 07:29:37;;;;;;;13.60;6.40;;;;;;;26.91;29.59;100133.91;5108349;28;20028;-35
2022/10/09 07:32:02;;;;;;;7.05;4.40;;;;;;;26.95;28.94;100140.38;5108568;28;20043;-36
2022/10/09 07:34:28;;;;;;;7.22;4.05;;;;;;;27.01;28.78;100141.88;5109541;28;20049;-36
2022/10/09 07:36:54;;;;;;;13.80;4.70;;;;;;;25.65;30.50;100139.25;5109936;28;20020;-35
2022/10/09 07:39:20;;;;;;;8.63;5.50;;;;;;;26.08;29.89;100137.28;5110784;28;20107;-37
2022/10/09 07:41:49;;;;;;;7.07;4.13;;;;;;;26.61;29.20;100138.03;5110846;28;20107;-36
2022/10/09 07:44:14;;;;;;;8.27;4.25;;;;;;;27.06;29.11;100138.25;5110686;28;20024;-36
2022/10/09 07:46:40;;;;;;;6.55;4.03;;;;;;;27.36;28.85;100145.03;5110504;28;20478;-36
2022/10/09 07:49:05;;;;;;;9.65;3.92;;;;;;;27.29;28.59;100153.63;5110642;28;20030;-35
2022/10/09 07:51:32;;;;;;;6.53;4.38;;;;;;;27.49;28.30;100155.13;5115184;28;20362;-37
2022/10/09 07:53:59;;;;;;;6.30;4.13;;;;;;;27.54;28.07;100156.13;5113881;28;20031;-36
2022/10/09 07:56:32;;;;;;;8.15;4.25;;;;;;;27.73;28.06;100161.44;5114390;27;20391;-35
2022/10/09 07:59:01;;;;;;;8.70;3.90;;;;;;;27.32;28.81;100148.66;5114640;28;20027;-36
2022/10/09 08:01:27;;;;;;;8.23;4.03;;;;;;;28.01;28.12;100154.78;5114416;28;20467;-37
2022/10/09 08:03:53;;;;;;;6.45;4.35;;;;;;;28.29;27.05;100160.13;5114562;28;20798;-37
2022/10/09 08:06:19;;;;;;;9.30;4.35;;;;;;;27.68;28.05;100152.25;5114215;28;20032;-36
2022/10/09 08:08:49;;;;;;;5.45;3.92;;;;;;;27.76;28.01;100145.25;5114567;28;20053;-37
2022/10/09 08:11:16;;;;;;;6.72;4.03;;;;;;;28.35;27.01;100147.13;5114384;28;20026;-37
2022/10/09 08:13:43;;;;;;;6.03;3.90;;;;;;;28.99;26.43;100144.88;5114620;28;20099;-36
2022/10/09 08:16:09;;;;;;;7.47;4.25;;;;;;;28.93;26.47;100148.09;5114410;28;20363;-36
2022/10/09 08:18:35;;;;;;;22.92;15.23;;;;;;;29.18;26.61;100149.31;5114214;28;20456;-37
2022/10/09 08:21:12;;;;;;;9.32;4.68;;;;;;;29.53;25.93;100149.34;5113979;28;20058;-35
2022/10/09 08:23:37;;;;;;;7.13;4.10;;;;;;;29.35;26.09;100149.34;5114028;28;20020;-36
2022/10/09 08:26:10;;;;;;;6.45;3.95;;;;;;;29.60;25.58;100153.22;5114256;28;20370;-36
2022/10/09 08:28:35;;;;;;;7.25;3.58;;;;;;;30.02;25.26;100150.03;5114016;28;20102;-37
2022/10/09 08:31:09;;;;;;;6.45;3.50;;;;;;;30.12;25.48;100146.16;5113917;28;20018;-36
2022/10/09 08:33:34;;;;;;;8.18;3.58;;;;;;;30.12;25.00;100146.97;5114006;28;20099;-36
2022/10/09 08:36:08;;;;;;;9.52;3.78;;;;;;;30.13;25.22;100139.53;5113851;28;20099;-37
2022/10/09 08:38:34;;;;;;;8.38;3.63;;;;;;;30.18;24.90;100137.44;5113787;28;20046;-36
2022/10/09 08:41:33;;;;;;;6.65;3.70;;;;;;;29.90;25.36;100127.97;5114020;28;20027;-36
2022/10/09 08:44:05;;;;;;;8.15;3.80;;;;;;;29.75;25.48;100130.06;5113927;28;20024;-36
2022/10/09 08:46:51;;;;;;;8.18;5.72;;;;;;;29.98;25.35;100127.13;5113735;28;20030;-36
2022/10/09 08:49:49;;;;;;;4.97;3.78;;;;;;;29.97;26.00;100128.28;5113677;28;20081;-36
2022/10/09 08:52:50;;;;;;;11.65;5.85;;;;;;;29.68;26.10;100120.66;5113119;28;20035;-38
2022/10/09 08:55:34;;;;;;;7.30;4.60;;;;;;;29.81;25.23;100115.03;5089336;28;20032;-36
2022/10/09 08:58:03;;;;;;;6.78;4.30;;;;;;;30.00;25.68;100113.91;5113340;28;20201;-36
2022/10/09 09:00:53;;;;;;;5.53;3.72;;;;;;;30.50;24.87;100107.84;5112678;28;20023;-36
2022/10/09 09:03:32;;;;;;;6.47;3.60;;;;;;;30.29;24.49;100110.47;5105571;28;20436;-36
2022/10/09 09:06:19;;;;;;;5.18;3.55;;;;;;;30.08;24.93;100115.81;5113171;28;20030;-37
2022/10/09 09:09:06;;;;;;;6.00;3.83;;;;;;;30.01;25.50;100121.81;5112869;28;20073;-37
2022/10/09 09:11:51;;;;;;;6.78;4.00;;;;;;;29.80;26.25;100120.88;5113051;28;20489;-36
2022/10/09 09:14:20;;;;;;;7.90;3.83;;;;;;;30.18;25.40;100114.69;5113472;28;20039;-37
2022/10/09 09:17:22;;;;;;;8.77;3.67;;;;;;;30.23;24.96;100102.72;5113583;28;20072;-37
2022/10/09 09:19:48;;;;;;;7.18;3.70;;;;;;;30.47;25.03;100102.19;5113238;28;20031;-37
2022/10/09 09:22:15;;;;;;;4.63;3.65;;;;;;;30.42;25.05;100099.63;5113170;28;20048;-36
2022/10/09 09:24:43;;;;;;;5.82;4.00;;;;;;;30.52;25.40;100097.34;5113323;28;20023;-36
2022/10/09 09:27:18;;;;;;;7.88;4.25;;;;;;;30.73;24.80;100089.16;5112901;28;20514;-37
2022/10/09 09:30:25;;;;;;;8.25;4.00;;;;;;;30.28;24.69;100092.38;5095162;28;20394;-36
2022/10/09 09:32:57;;;;;;;5.75;3.90;;;;;;;29.73;25.81;100088.44;5096867;28;20036;-36
2022/10/09 09:35:47;;;;;;;7.57;4.05;;;;;;;29.98;25.74;100092.28;5093574;28;20051;-37
2022/10/09 09:38:14;;;;;;;6.82;4.72;;;;;;;30.33;24.99;100085.91;5092582;28;20024;-36
2022/10/09 09:40:40;;;;;;;8.43;4.28;;;;;;;30.10;24.89;100082.56;5091620;28;20040;-37
2022/10/09 09:43:16;;;;;;;5.30;4.30;;;;;;;29.87;25.16;100090.19;5092445;28;20039;-36
2022/10/09 09:45:42;;;;;;;6.93;4.20;;;;;;;29.28;26.11;100088.72;5092580;28;20027;-36
2022/10/09 09:48:35;;;;;;;6.15;4.20;;;;;;;29.46;26.80;100091.50;5092333;28;20080;-37
2022/10/09 09:51:11;;;;;;;5.40;4.18;;;;;;;29.32;26.49;100084.22;5085810;28;20044;-36
2022/10/09 09:53:43;;;;;;;8.73;4.75;;;;;;;29.54;26.62;100077.78;5094640;28;20023;-37
2022/10/09 09:56:10;;;;;;;10.13;7.85;;;;;;;29.79;26.03;100064.41;5110889;28;20023;-36
2022/10/09 09:58:52;;;;;;;6.65;4.30;;;;;;;30.16;24.73;100079.34;5111199;28;20031;-36
2022/10/09 10:01:26;;;;;;;6.22;3.88;;;;;;;30.53;25.03;100076.97;5111973;28;20031;-36
2022/10/09 10:03:54;;;;;;;7.65;5.25;;;;;;;30.32;25.23;100070.59;5111900;28;20028;-36
2022/10/09 10:06:27;;;;;;;12.93;8.80;;;;;;;30.30;24.44;100068.16;5111975;28;20138;-37
2022/10/09 10:09:13;;;;;;;7.97;5.45;;;;;;;30.38;24.90;100067.34;5112004;27;20028;-36
2022/10/09 10:11:45;;;;;;;5.82;3.83;;;;;;;30.76;24.60;100072.00;5111508;28;20023;-36
2022/10/09 10:14:16;;;;;;;4.68;4.03;;;;;;;30.90;24.13;100062.75;5111738;28;20031;-36
2022/10/09 10:16:42;;;;;;;4.57;3.42;;;;;;;31.26;23.81;100061.38;5112086;28;20135;-37
2022/10/09 10:19:28;;;;;;;5.75;3.33;;;;;;;31.32;24.02;100069.09;5112089;28;20024;-36
2022/10/09 10:22:05;;;;;;;4.10;2.92;;;;;;;31.74;23.08;100066.34;5112095;28;20052;-36
2022/10/09 10:24:34;;;;;;;5.88;3.95;;;;;;;31.03;23.39;100061.69;5112016;28;20075;-36
2022/10/09 10:27:26;;;;;;;7.93;3.80;;;;;;;31.56;23.27;100062.94;5111892;28;20038;-36
2022/10/09 10:29:56;;;;;;;10.70;5.70;;;;;;;31.87;22.46;100055.38;5112064;28;20530;-36
2022/10/09 10:32:34;;;;;;;9.00;4.80;;;;;;;31.36;23.56;100056.28;5111706;28;20073;-37
2022/10/09 10:35:05;;;;;;;6.25;4.07;;;;;;;30.89;23.91;100055.63;5111592;28;20462;-36
2022/10/09 10:37:37;;;;;;;9.52;4.70;;;;;;;31.09;23.63;100048.56;5111910;28;20030;-38
2022/10/09 10:40:30;;;;;;;7.22;3.75;;;;;;;31.65;23.94;100038.13;5111608;28;20032;-37
2022/10/09 10:43:08;;;;;;;12.07;9.85;;;;;;;31.62;22.88;100048.97;5111633;28;20548;-36
2022/10/09 10:45:40;;;;;;;4.63;3.00;;;;;;;30.96;23.53;100047.72;5111979;28;20032;-37
2022/10/09 10:48:18;;;;;;;10.52;3.20;;;;;;;30.78;23.81;100036.78;5111980;28;20031;-37
2022/10/09 10:51:06;;;;;;;3.47;2.92;;;;;;;30.95;23.67;100027.66;5111375;28;20106;-36
2022/10/09 10:53:56;;;;;;;5.10;3.70;;;;;;;30.65;23.91;100023.28;5103155;28;20529;-38
2022/10/09 10:56:32;;;;;;;4.25;3.10;;;;;;;30.44;24.38;100013.06;5111367;28;20027;-37
2022/10/09 10:59:00;;;;;;;4.55;2.78;;;;;;;30.12;25.32;100012.53;5111571;28;20028;-36
2022/10/09 11:01:34;;;;;;;5.03;2.97;;;;;;;30.72;24.47;100013.38;5111133;28;20102;-37
2022/10/09 11:04:20;;;;;;;7.70;5.35;;;;;;;30.98;24.37;100012.47;5111307;28;20080;-37
2022/10/09 11:07:10;;;;;;;6.93;3.30;;;;;;;31.36;23.43;100017.81;5111193;28;20039;-37
2022/10/09 11:09:44;;;;;;;;;;;;;;;31.49;23.08;100006.88;5111617;28;20077;-37
2022/10/09 11:12:19;;;;;;;3.85;2.85;;;;;;;31.44;23.59;100013.38;5110922;28;19923;-37
2022/10/09 11:14:57;;;;;;;3.88;2.88;;;;;;;31.36;23.84;100011.50;5111199;28;20028;-37
2022/10/09 11:17:26;;;;;;;4.70;3.00;;;;;;;30.93;24.05;100007.16;5111117;28;20030;-36
2022/10/09 11:20:16;;;;;;;5.07;2.63;;;;;;;31.52;23.70;100001.50;5111183;28;20287;-35
2022/10/09 11:23:12;;;;;;;3.55;2.83;;;;;;;31.96;23.33;99990.84;5110634;28;20514;-35
2022/10/09 11:25:52;;;;;;;4.88;2.80;;;;;;;30.70;23.36;99996.44;5109013;28;20427;-36
2022/10/09 11:28:21;;;;;;;;;;;;;;;30.88;23.78;100001.81;5115764;28;20443;-36
2022/10/09 11:31:13;;;;;;;3.65;2.55;;;;;;;31.47;23.28;100004.50;5114897;28;20359;-37
2022/10/09 11:33:45;;;;;;;6.22;2.70;;;;;;;31.79;22.98;99999.28;5114916;28;20063;-37
2022/10/09 11:36:26;;;;;;;5.45;2.70;;;;;;;31.38;23.11;99992.72;5114583;28;20058;-37
2022/10/09 11:38:59;;;;;;;6.40;2.75;;;;;;;29.74;24.72;99985.03;5094747;28;20032;-36
2022/10/09 11:41:27;;;;;;;5.78;2.65;;;;;;;29.04;25.50;99980.38;5094802;28;20052;-37